Time;durP1;ratioP1;P1;durP2;ratioP2;P2;SDS_P1;SDS_P2;PMS_P1;PMS_P2;Temp;Humidity;BMP_temperature;BMP_pressure;BME280_temperature;BME280_humidity;BME280_pressure;Samples;Min_cycle;Max_cycle;Signal;HPM_P1;HPM_P2
2023/06/14 00:01:34;;;;;;;4.40;2.92;;;17.90;95.90;;;;;;5040162;28;20546;-73
2023/06/14 00:04:01;;;;;;;8.30;3.03;;;18.30;96.10;;;;;;5056332;28;20040;-73
2023/06/14 00:06:27;;;;;;;4.70;2.33;;;;;;;;;;5055834;28;20098;-73
2023/06/14 00:08:54;;;;;;;5.53;2.17;;;;;;;;;;5039637;28;20504;-73
2023/06/14 00:11:20;;;;;;;7.13;2.10;;;;;;;;;;5056392;28;20049;-73
2023/06/14 00:13:46;;;;;;;5.70;2.28;;;;;;;;;;5056415;28;20522;-73
2023/06/14 00:16:12;;;;;;;8.43;2.70;;;;;;;;;;5039166;28;20445;-73
2023/06/14 00:18:38;;;;;;;6.90;2.30;;;;;;;;;;5055932;28;20047;-73
2023/06/14 00:21:05;;;;;;;5.82;2.15;;;;;;;;;;5055581;28;20083;-73
2023/06/14 00:23:31;;;;;;;3.80;2.13;;;;;;;;;;5056141;28;20032;-73
2023/06/14 00:25:57;;;;;;;5.55;2.58;;;;;;;;;;5055407;28;20547;-73
2023/06/14 00:28:23;;;;;;;6.07;3.00;;;;;;;;;;5055742;28;20052;-73
2023/06/14 00:30:49;;;;;;;7.78;3.72;;;;;;;;;;5039242;28;20037;-73
2023/06/14 00:33:15;;;;;;;4.45;2.95;;;;;;;;;;5055967;28;20044;-73
2023/06/14 00:35:41;;;;;;;5.53;2.53;;;;;;;;;;5055465;28;20036;-73
2023/06/14 00:38:07;;;;;;;5.45;2.33;;;;;;;;;;5038944;28;20408;-73
2023/06/14 00:40:34;;;;;;;5.57;1.90;;;17.20;99.90;;;;;;5056114;28;20101;-73
2023/06/14 00:43:00;;;;;;;3.58;2.45;;;17.20;99.90;;;;;;5055715;28;20045;-73
2023/06/14 00:45:26;;;;;;;4.45;2.28;;;17.40;99.60;;;;;;5038422;28;20040;-73
2023/06/14 00:47:54;;;;;;;5.85;3.05;;;17.30;99.10;;;;;;5055377;28;20040;-72
2023/06/14 00:50:21;;;;;;;3.97;2.63;;;17.30;99.90;;;;;;5056208;28;20049;-73
2023/06/14 00:52:47;;;;;;;5.32;2.50;;;;;;;;;;5055871;28;20404;-73
2023/06/14 00:55:13;;;;;;;10.00;2.67;;;17.00;97.90;;;;;;5038588;28;20507;-73
2023/06/14 00:57:39;;;;;;;4.80;2.75;;;16.90;98.00;;;;;;5055539;28;20094;-73
2023/06/14 01:00:08;;;;;;;12.90;3.13;;;17.10;98.10;;;;;;5055617;28;20040;-73
2023/06/14 01:02:36;;;;;;;4.35;1.98;;;16.80;98.10;;;;;;5055713;28;20389;-73
2023/06/14 01:05:02;;;;;;;10.20;2.47;;;16.90;98.30;;;;;;5055420;28;20048;-73
2023/06/14 01:07:28;;;;;;;5.90;2.50;;;17.10;98.50;;;;;;5054829;28;20417;-73
2023/06/14 01:10:21;;;;;;;5.63;2.58;;;16.80;98.50;;;;;;5055355;28;20389;-73
2023/06/14 01:12:52;;;;;;;5.93;2.83;;;16.80;98.30;;;;;;5038540;28;20040;-73
2023/06/14 01:15:20;;;;;;;7.82;3.92;;;16.80;98.50;;;;;;5054735;28;20044;-73
2023/06/14 01:17:46;;;;;;;6.47;2.38;;;16.80;98.80;;;;;;5054366;28;20085;-73
2023/06/14 01:20:14;;;;;;;5.93;2.20;;;16.80;98.90;;;;;;5036355;28;20028;-73
2023/06/14 01:22:52;;;;;;;7.07;2.50;;;16.50;99.00;;;;;;5072829;28;20577;-73
2023/06/14 01:25:20;;;;;;;6.15;3.35;;;16.70;99.20;;;;;;5053699;28;20044;-73
2023/06/14 01:27:49;;;;;;;6.50;2.50;;;16.80;99.30;;;;;;5038014;28;20041;-73
2023/06/14 01:30:16;;;;;;;8.27;2.65;;;16.60;99.30;;;;;;5054814;28;20549;-73
2023/06/14 01:32:42;;;;;;;8.65;2.28;;;17.20;99.50;;;;;;5054740;28;20032;-73
2023/06/14 01:35:08;;;;;;;4.72;2.67;;;16.70;99.60;;;;;;5054503;28;20178;-73
2023/06/14 01:37:34;;;;;;;7.25;3.08;;;16.40;99.60;;;;;;5037860;28;20048;-73
2023/06/14 01:40:00;;;;;;;3.78;2.55;;;16.50;99.70;;;;;;5054400;28;20064;-73
2023/06/14 01:42:27;;;;;;;10.25;4.25;;;16.60;99.70;;;;;;5054627;28;20515;-73
2023/06/14 01:44:54;;;;;;;5.70;2.28;;;16.80;99.90;;;;;;5054850;28;20435;-73
2023/06/14 01:47:20;;;;;;;3.67;2.03;;;16.30;99.90;;;;;;5053668;28;20155;-73
2023/06/14 01:49:46;;;;;;;5.60;2.00;;;16.40;99.90;;;;;;5054453;28;20504;-73
2023/06/14 01:52:13;;;;;;;5.75;3.10;;;17.10;99.90;;;;;;5054254;28;20500;-73
2023/06/14 01:54:42;;;;;;;4.93;2.38;;;16.30;99.90;;;;;;5054223;28;20577;-73
2023/06/14 01:57:08;;;;;;;4.82;2.15;;;16.10;99.90;;;;;;5053663;28;20115;-73
2023/06/14 01:59:35;;;;;;;3.55;2.47;;;16.30;99.90;;;;;;5053962;28;20040;-73
2023/06/14 02:02:03;;;;;;;3.47;2.60;;;16.20;99.90;;;;;;5054127;28;20667;-73
2023/06/14 02:04:28;;;;;;;6.80;2.75;;;16.40;99.90;;;;;;5054278;28;20028;-73
2023/06/14 02:06:54;;;;;;;4.32;2.60;;;16.30;99.90;;;;;;5053735;28;20028;-73
2023/06/14 02:09:20;;;;;;;6.72;3.85;;;16.60;99.90;;;;;;5054069;28;20126;-73
2023/06/14 02:11:45;;;;;;;6.65;2.70;;;16.10;99.90;;;;;;5054553;28;20047;-73
2023/06/14 02:14:11;;;;;;;5.10;2.58;;;16.00;99.90;;;;;;5054720;28;20401;-73
2023/06/14 02:16:38;;;;;;;8.80;2.75;;;16.00;99.90;;;;;;5053995;28;20044;-73
2023/06/14 02:19:04;;;;;;;8.20;3.40;;;15.90;99.90;;;;;;5054780;28;20509;-73
2023/06/14 02:21:30;;;;;;;4.93;3.10;;;16.00;99.90;;;;;;5054802;28;20051;-73
2023/06/14 02:23:56;;;;;;;5.53;3.17;;;16.60;99.90;;;;;;5055199;28;20032;-73
2023/06/14 02:26:25;;;;;;;7.18;3.33;;;15.90;99.90;;;;;;5054626;28;20385;-73
2023/06/14 02:28:51;;;;;;;6.57;3.15;;;;;;;;;;5053714;28;20090;-73
2023/06/14 02:31:16;;;;;;;5.75;3.03;;;15.90;99.90;;;;;;5054396;28;20037;-73
2023/06/14 02:33:42;;;;;;;6.68;3.05;;;;;;;;;;5037456;28;20080;-73
2023/06/14 02:36:08;;;;;;;7.53;2.40;;;;;;;;;;5054299;28;20063;-73
2023/06/14 02:38:34;;;;;;;6.85;2.60;;;15.70;99.90;;;;;;5054112;28;20032;-72
2023/06/14 02:41:01;;;;;;;5.47;2.35;;;15.80;99.90;;;;;;5054415;28;20086;-73
2023/06/14 02:43:28;;;;;;;13.18;3.72;;;16.40;99.90;;;;;;5053329;28;20033;-73
2023/06/14 02:45:54;;;;;;;6.55;3.65;;;15.80;99.90;;;;;;5053587;28;20064;-73
2023/06/14 02:48:20;;;;;;;7.18;2.95;;;15.70;99.90;;;;;;5054325;28;20508;-72
2023/06/14 02:50:45;;;;;;;6.20;2.65;;;15.40;99.90;;;;;;5037945;28;20043;-73
2023/06/14 02:53:12;;;;;;;4.60;2.38;;;;;;;;;;5054203;28;20518;-73
2023/06/14 02:55:39;;;;;;;6.25;3.17;;;;;;;;;;5054110;28;20045;-73
2023/06/14 02:58:05;;;;;;;10.35;2.80;;;15.70;99.90;;;;;;5077142;22;20044;-71
2023/06/14 03:00:31;;;;;;;7.80;2.75;;;15.50;99.90;;;;;;5053682;28;20041;-71
2023/06/14 03:02:56;;;;;;;5.40;2.53;;;15.50;99.90;;;;;;5037061;28;20480;-71
2023/06/14 03:05:22;;;;;;;4.90;2.60;;;15.50;99.90;;;;;;5053154;28;20037;-71
2023/06/14 03:07:50;;;;;;;6.03;2.72;;;15.50;99.90;;;;;;5053207;28;20040;-69
2023/06/14 03:10:16;;;;;;;5.00;3.13;;;15.40;99.90;;;;;;5053379;28;20040;-71
2023/06/14 03:12:41;;;;;;;4.80;2.42;;;15.60;99.90;;;;;;5053445;28;20062;-69
2023/06/14 03:15:08;;;;;;;4.40;2.60;;;15.40;99.90;;;;;;5052922;28;20033;-70
2023/06/14 03:17:35;;;;;;;7.30;2.53;;;15.50;99.90;;;;;;5053261;28;20111;-71
2023/06/14 03:20:01;;;;;;;4.18;2.10;;;15.40;99.90;;;;;;5052970;28;20087;-71
2023/06/14 03:22:28;;;;;;;5.25;2.58;;;;;;;;;;5053289;28;20063;-71
2023/06/14 03:24:53;;;;;;;4.68;2.22;;;15.40;99.90;;;;;;5036581;28;20082;-71
2023/06/14 03:27:19;;;;;;;5.90;2.78;;;15.30;99.90;;;;;;5052710;28;20041;-71
2023/06/14 03:29:45;;;;;;;7.30;2.53;;;;;;;;;;5052988;28;20036;-71
2023/06/14 03:32:11;;;;;;;3.65;2.17;;;15.40;99.90;;;;;;5071141;28;20040;-71
2023/06/14 03:34:38;;;;;;;5.75;2.72;;;15.30;99.90;;;;;;5053022;28;20033;-71
2023/06/14 03:37:04;;;;;;;5.38;3.03;;;;;;;;;;5052522;28;20041;-71
2023/06/14 03:39:31;;;;;;;4.93;2.60;;;15.40;99.90;;;;;;5052922;28;20040;-71
2023/06/14 03:41:56;;;;;;;4.43;2.40;;;15.40;99.90;;;;;;5053088;28;20045;-71
2023/06/14 03:44:22;;;;;;;4.82;2.42;;;15.30;99.90;;;;;;5053024;28;20399;-70
2023/06/14 03:46:48;;;;;;;6.00;2.45;;;;;;;;;;5036333;28;20037;-71
2023/06/14 03:49:13;;;;;;;6.47;2.20;;;15.30;99.90;;;;;;5052729;28;20043;-71
2023/06/14 03:51:39;;;;;;;6.35;2.55;;;15.50;99.90;;;;;;5052655;28;20036;-71
2023/06/14 03:54:05;;;;;;;4.57;2.03;;;15.50;99.90;;;;;;5053008;28;20050;-71
2023/06/14 03:56:31;;;;;;;5.20;2.22;;;15.40;99.90;;;;;;5055026;28;20063;-71
2023/06/14 03:58:57;;;;;;;6.15;2.45;;;15.40;99.90;;;;;;5039648;28;20492;-71
2023/06/14 04:01:27;;;;;;;3.78;2.20;;;;;;;;;;5056565;28;20040;-71
2023/06/14 04:03:53;;;;;;;4.40;2.47;;;;;;;;;;5056472;28;20048;-71
2023/06/14 04:06:19;;;;;;;4.97;2.60;;;15.30;99.90;;;;;;5056021;28;20131;-71
2023/06/14 04:08:45;;;;;;;7.65;2.50;;;15.50;99.90;;;;;;5056158;28;20044;-71
2023/06/14 04:11:11;;;;;;;6.32;2.90;;;;;;;;;;5056617;28;20098;-71
2023/06/14 04:13:39;;;;;;;4.93;2.70;;;;;;;;;;5056314;28;20044;-71
2023/06/14 04:16:05;;;;;;;4.93;2.42;;;15.40;99.90;;;;;;5055697;28;20082;-71
2023/06/14 04:18:30;;;;;;;7.97;2.63;;;15.40;99.90;;;;;;5039459;28;20040;-71
2023/06/14 04:20:56;;;;;;;4.63;2.75;;;15.60;99.90;;;;;;5056234;28;20067;-71
2023/06/14 04:23:22;;;;;;;4.28;2.47;;;15.40;99.90;;;;;;5056104;28;20047;-71
2023/06/14 04:25:49;;;;;;;5.00;2.58;;;15.50;99.90;;;;;;5039140;28;20536;-71
2023/06/14 04:28:15;;;;;;;8.25;2.67;;;15.60;99.90;;;;;;5039201;28;20054;-71
2023/06/14 04:30:41;;;;;;;4.53;2.35;;;;;;;;;;5056192;28;20044;-71
2023/06/14 04:33:09;;;;;;;5.15;2.75;;;;;;;;;;5055865;28;20076;-71
2023/06/14 04:35:35;;;;;;;5.30;2.72;;;15.80;99.90;;;;;;5055369;28;20577;-71
2023/06/14 04:38:04;;;;;;;11.73;2.85;;;15.90;99.90;;;;;;5055589;28;20412;-71
2023/06/14 04:40:33;;;;;;;8.68;2.55;;;15.90;99.90;;;;;;5055814;28;20045;-71
2023/06/14 04:42:59;;;;;;;4.32;2.60;;;15.90;99.90;;;;;;5039120;28;20040;-71
2023/06/14 04:45:31;;;;;;;4.15;3.38;;;;;;;;;;5038503;28;20420;-71
2023/06/14 04:47:59;;;;;;;5.47;2.20;;;;;;;;;;5055405;28;20131;-71
2023/06/14 04:50:24;;;;;;;3.63;1.90;;;16.10;99.90;;;;;;5038980;28;20059;-71
2023/06/14 04:52:51;;;;;;;3.58;2.45;;;16.30;99.90;;;;;;5055447;28;20037;-71
2023/06/14 04:55:18;;;;;;;5.97;2.40;;;16.20;99.90;;;;;;5055240;28;20048;-71
2023/06/14 04:57:44;;;;;;;6.68;2.50;;;16.40;99.90;;;;;;5055166;28;20048;-71
2023/06/14 05:00:11;;;;;;;4.70;2.92;;;16.40;99.90;;;;;;5055352;28;20043;-71
2023/06/14 05:02:37;;;;;;;5.43;2.42;;;16.40;99.90;;;;;;5055460;28;20649;-71
2023/06/14 05:05:06;;;;;;;3.03;2.60;;;16.50;99.90;;;;;;5038704;28;20119;-71
2023/06/14 05:07:33;;;;;;;5.47;3.03;;;16.60;99.90;;;;;;5037560;28;20119;-71
2023/06/14 05:09:59;;;;;;;7.00;2.60;;;;;;;;;;5054596;28;20036;-71
2023/06/14 05:12:25;;;;;;;2.80;2.50;;;16.70;99.90;;;;;;5054660;28;20044;-71
2023/06/14 05:14:51;;;;;;;5.68;2.78;;;16.90;99.90;;;;;;5037932;28;20037;-71
2023/06/14 05:17:17;;;;;;;5.38;2.55;;;16.70;99.90;;;;;;5037500;28;20032;-71
2023/06/14 05:19:42;;;;;;;5.35;2.38;;;16.80;99.90;;;;;;5054474;28;20119;-72
2023/06/14 05:22:08;;;;;;;5.93;2.63;;;;;;;;;;5054228;28;20036;-71
2023/06/14 05:24:34;;;;;;;5.25;3.00;;;16.80;99.90;;;;;;5054133;28;20435;-71
2023/06/14 05:27:00;;;;;;;5.20;2.97;;;16.80;99.90;;;;;;5054049;28;20101;-71
2023/06/14 05:29:27;;;;;;;6.03;2.63;;;17.20;99.90;;;;;;5054359;28;20159;-72
2023/06/14 05:31:53;;;;;;;7.05;2.75;;;17.10;99.90;;;;;;5054768;28;20499;-72
2023/06/14 05:34:18;;;;;;;7.50;2.92;;;17.10;99.90;;;;;;5054698;28;20064;-72
2023/06/14 05:36:44;;;;;;;6.05;2.90;;;17.10;99.90;;;;;;5072279;28;20545;-72
2023/06/14 05:39:10;;;;;;;7.57;2.90;;;17.20;99.90;;;;;;5037004;28;20048;-71
2023/06/14 05:41:36;;;;;;;6.63;3.33;;;;;;;;;;5053388;28;20047;-71
2023/06/14 05:44:02;;;;;;;4.85;2.38;;;17.50;99.90;;;;;;5053386;28;20492;-71
2023/06/14 05:46:28;;;;;;;9.07;2.63;;;;;;;;;;5052978;28;20053;-71
2023/06/14 05:48:55;;;;;;;3.88;2.63;;;17.70;99.90;;;;;;5054610;28;20097;-71
2023/06/14 05:51:21;;;;;;;8.02;2.83;;;;;;;;;;5050141;28;20072;-71
2023/06/14 05:53:48;;;;;;;6.63;3.65;;;17.80;99.90;;;;;;5049757;28;20612;-71
2023/06/14 05:56:14;;;;;;;5.40;2.92;;;17.90;99.90;;;;;;5048808;28;20037;-71
2023/06/14 05:58:40;;;;;;;4.93;2.88;;;17.90;99.90;;;;;;5046214;28;20071;-71
2023/06/14 06:01:06;;;;;;;7.63;2.63;;;18.00;99.90;;;;;;5031732;28;20075;-69
2023/06/14 06:03:32;;;;;;;5.07;3.63;;;;;;;;;;5045635;28;20481;-70
2023/06/14 06:05:58;;;;;;;7.47;2.88;;;17.90;99.90;;;;;;5032844;28;20029;-70
2023/06/14 06:08:24;;;;;;;10.27;3.22;;;;;;;;;;5041706;28;20066;-70
2023/06/14 06:10:50;;;;;;;5.07;2.60;;;18.20;99.90;;;;;;5046052;28;20099;-71
2023/06/14 06:13:15;;;;;;;6.47;2.85;;;18.30;99.90;;;;;;5031226;28;20061;-71
2023/06/14 06:15:41;;;;;;;6.75;3.25;;;;;;;;;;5044442;28;20127;-71
2023/06/14 06:18:07;;;;;;;8.15;2.83;;;18.40;99.90;;;;;;5045225;28;20043;-71
2023/06/14 06:20:33;;;;;;;9.90;3.75;;;18.80;99.90;;;;;;5044174;28;20504;-71
2023/06/14 06:22:59;;;;;;;7.35;2.80;;;18.60;99.90;;;;;;5048251;28;20072;-71
2023/06/14 06:25:28;;;;;;;4.25;2.50;;;18.60;99.90;;;;;;5049070;28;20083;-69
2023/06/14 06:27:56;;;;;;;6.70;2.40;;;18.90;99.90;;;;;;5046774;28;20040;-70
2023/06/14 06:30:22;;;;;;;5.40;2.30;;;19.10;99.90;;;;;;5033988;28;20040;-70
2023/06/14 06:32:48;;;;;;;7.18;2.50;;;19.30;99.90;;;;;;5046029;28;20093;-69
2023/06/14 06:35:13;;;;;;;6.85;3.03;;;19.50;99.90;;;;;;5047634;28;20097;-70
2023/06/14 06:37:40;;;;;;;6.65;2.53;;;19.50;99.90;;;;;;5046932;28;20622;-70
2023/06/14 06:40:08;;;;;;;4.22;2.45;;;19.60;99.90;;;;;;5047244;28;20055;-70
2023/06/14 06:42:34;;;;;;;5.60;2.42;;;19.60;99.90;;;;;;5047502;28;20040;-70
2023/06/14 06:45:00;;;;;;;7.47;2.72;;;19.80;99.90;;;;;;5031354;28;20566;-70
2023/06/14 06:47:25;;;;;;;6.03;2.45;;;20.10;99.90;;;;;;5042520;28;20120;-70
2023/06/14 06:49:51;;;;;;;6.30;2.63;;;20.10;99.90;;;;;;5046476;28;20570;-69
2023/06/14 06:52:17;;;;;;;6.10;2.40;;;20.20;99.90;;;;;;5048056;28;20420;-70
2023/06/14 06:54:42;;;;;;;6.53;2.55;;;20.30;99.90;;;;;;5047656;28;20068;-69
2023/06/14 06:57:08;;;;;;;3.92;2.60;;;20.50;99.00;;;;;;5053688;28;20400;-70
2023/06/14 06:59:34;;;;;;;5.55;2.30;;;20.50;98.70;;;;;;5026409;28;20493;-68
2023/06/14 07:02:00;;;;;;;3.03;1.63;;;20.30;99.10;;;;;;5045293;28;20573;-70
2023/06/14 07:04:25;;;;;;;5.97;3.08;;;20.60;99.10;;;;;;5066662;28;20040;-70
2023/06/14 07:06:51;;;;;;;4.88;1.67;;;20.70;99.20;;;;;;5043520;28;20075;-67
2023/06/14 07:09:17;;;;;;;2.95;1.90;;;20.80;98.80;;;;;;5050090;28;20115;-69
2023/06/14 07:11:43;;;;;;;6.38;1.92;;;20.80;98.00;;;;;;5053928;28;20037;-69
2023/06/14 07:14:09;;;;;;;3.53;1.88;;;20.80;98.10;;;;;;5040088;28;20488;-70
2023/06/14 07:16:35;;;;;;;6.20;2.58;;;21.00;97.40;;;;;;5066232;28;20049;-68
2023/06/14 07:19:02;;;;;;;5.90;2.47;;;21.20;97.60;;;;;;5046178;28;20033;-69
2023/06/14 07:21:27;;;;;;;3.03;2.05;;;21.60;97.60;;;;;;5040002;28;20110;-70
2023/06/14 07:23:53;;;;;;;2.83;1.88;;;22.50;97.60;;;;;;5047400;28;20531;-70
2023/06/14 07:26:19;;;;;;;4.45;1.73;;;21.60;97.30;;;;;;5045297;28;20032;-71
2023/06/14 07:28:46;;;;;;;3.38;2.10;;;21.40;97.60;;;;;;5050736;28;20045;-71
2023/06/14 07:31:12;;;;;;;6.63;2.00;;;22.40;97.00;;;;;;5048673;28;20064;-70
2023/06/14 07:33:38;;;;;;;3.55;2.00;;;21.70;97.00;;;;;;5060170;28;20059;-70
2023/06/14 07:36:04;;;;;;;7.05;2.00;;;21.70;96.90;;;;;;5053823;28;20095;-70
2023/06/14 07:38:30;;;;;;;2.92;1.90;;;21.80;96.50;;;;;;5038865;28;20075;-71
2023/06/14 07:40:55;;;;;;;3.28;1.88;;;22.60;96.90;;;;;;5065942;28;20033;-71
2023/06/14 07:43:21;;;;;;;2.78;1.80;;;22.60;96.60;;;;;;5044454;28;20032;-70
2023/06/14 07:45:46;;;;;;;4.47;2.00;;;22.00;96.20;;;;;;5051475;28;20662;-70
2023/06/14 07:48:12;;;;;;;4.43;2.10;;;22.20;96.50;;;;;;5050201;28;20033;-68
2023/06/14 07:50:38;;;;;;;8.30;1.98;;;22.20;96.50;;;;;;5045033;28;20139;-70
2023/06/14 07:53:03;;;;;;;5.60;2.20;;;22.10;96.30;;;;;;5034729;28;20037;-70
2023/06/14 07:55:29;;;;;;;5.82;2.60;;;22.20;95.90;;;;;;5050434;28;20471;-68
2023/06/14 07:57:54;;;;;;;2.13;1.90;;;22.20;96.10;;;;;;5034267;28;20037;-70
2023/06/14 08:00:20;;;;;;;6.03;2.60;;;23.10;96.50;;;;;;5034257;28;20041;-66
2023/06/14 08:02:46;;;;;;;3.03;1.92;;;22.30;95.90;;;;;;5034653;28;20036;-69
2023/06/14 08:05:12;;;;;;;4.03;1.75;;;22.40;95.60;;;;;;5050451;28;20062;-71
2023/06/14 08:07:39;;;;;;;5.90;1.90;;;22.20;95.80;;;;;;5047552;28;20044;-70
2023/06/14 08:10:06;;;;;;;3.70;2.08;;;22.10;95.70;;;;;;5050899;28;20051;-69
2023/06/14 08:12:32;;;;;;;2.67;1.80;;;22.50;95.60;;;;;;5050751;28;20076;-71
2023/06/14 08:14:58;;;;;;;6.22;2.50;;;22.60;95.60;;;;;;5049909;28;20769;-70
2023/06/14 08:17:23;;;;;;;4.43;1.90;;;22.50;95.30;;;;;;5033999;28;20072;-70
2023/06/14 08:19:49;;;;;;;3.58;2.10;;;22.60;95.40;;;;;;5049480;28;20056;-70
2023/06/14 08:22:16;;;;;;;4.25;2.13;;;22.80;95.50;;;;;;5054722;28;20373;-71
2023/06/14 08:24:42;;;;;;;5.60;2.40;;;22.80;94.90;;;;;;5054358;28;20034;-71
2023/06/14 08:27:08;;;;;;;5.22;2.10;;;23.00;95.20;;;;;;5037098;28;20090;-71
2023/06/14 08:29:34;;;;;;;4.20;2.15;;;22.90;95.10;;;;;;5053696;28;20071;-70
2023/06/14 08:32:00;;;;;;;7.68;2.05;;;23.00;94.90;;;;;;5053608;28;20064;-71
2023/06/14 08:34:26;;;;;;;8.55;2.28;;;23.20;94.70;;;;;;5037440;28;20041;-71
2023/06/14 08:36:51;;;;;;;5.03;2.20;;;23.10;94.70;;;;;;5054137;28;20078;-70
2023/06/14 08:39:17;;;;;;;4.97;1.73;;;23.10;94.70;;;;;;5054429;28;20090;-71
2023/06/14 08:41:50;;;;;;;3.67;1.52;;;23.70;94.80;;;;;;5053993;28;20028;-71
2023/06/14 08:44:16;;;;;;;7.45;1.77;;;23.70;94.80;;;;;;5054500;28;20038;-69
2023/06/14 08:46:42;;;;;;;3.35;2.10;;;23.70;95.00;;;;;;5051840;28;20032;-71
2023/06/14 08:49:12;;;;;;;4.68;1.90;;;23.30;94.20;;;;;;5071935;28;20111;-70
2023/06/14 08:51:38;;;;;;;5.90;2.42;;;24.00;94.50;;;;;;5053682;28;20089;-72
2023/06/14 08:54:04;;;;;;;2.97;1.75;;;23.80;94.50;;;;;;5041544;28;20033;-70
2023/06/14 08:56:36;;;;;;;2.00;1.67;;;23.30;94.60;;;;;;5034071;28;20044;-69
2023/06/14 08:59:06;;;;;;;4.10;1.88;;;23.80;93.90;;;;;;5069477;22;20045;-71
2023/06/14 09:01:36;;;;;;;6.25;1.80;;;24.40;94.60;;;;;;5034899;28;20508;-70
2023/06/14 09:04:02;;;;;;;1.90;1.63;;;23.60;94.60;;;;;;5050972;28;20079;-70
2023/06/14 09:06:28;;;;;;;5.63;1.90;;;23.60;94.10;;;;;;5050147;28;20496;-71
2023/06/14 09:08:57;;;;;;;2.65;1.70;;;23.50;94.30;;;;;;5034782;28;20037;-71
2023/06/14 09:11:23;;;;;;;3.35;2.00;;;24.60;94.50;;;;;;5050902;28;20045;-71
2023/06/14 09:13:49;;;;;;;8.13;2.60;;;23.70;93.90;;;;;;5050416;28;20041;-70
2023/06/14 09:16:15;;;;;;;7.32;2.38;;;25.40;94.50;;;;;;5033851;28;20049;-71
2023/06/14 09:18:47;;;;;;;5.85;2.10;;;23.80;94.10;;;;;;5050480;28;20041;-71
2023/06/14 09:21:14;;;;;;;7.80;1.92;;;23.90;94.30;;;;;;5050736;28;20033;-71
2023/06/14 09:23:42;;;;;;;5.97;1.75;;;24.80;94.00;;;;;;5051286;28;20036;-70
2023/06/14 09:26:16;;;;;;;4.93;1.77;;;23.90;93.70;;;;;;5050080;28;20656;-71
2023/06/14 09:28:43;;;;;;;5.53;1.90;;;25.30;93.90;;;;;;5052769;28;20095;-72
2023/06/14 09:31:11;;;;;;;5.45;2.00;;;23.90;93.50;;;;;;5050844;28;20044;-72
2023/06/14 09:33:37;;;;;;;8.95;2.40;;;24.00;93.40;;;;;;5051038;28;20033;-71
2023/06/14 09:36:04;;;;;;;1.60;1.42;;;24.20;93.50;;;;;;5050587;28;20465;-72
2023/06/14 09:38:29;;;;;;;7.50;1.88;;;24.20;93.60;;;;;;5048803;28;20049;-72
2023/06/14 09:40:58;;;;;;;2.38;1.85;;;24.40;93.50;;;;;;5049743;28;20036;-72
2023/06/14 09:43:26;;;;;;;4.65;2.58;;;24.30;93.00;;;;;;5032783;28;20096;-71
2023/06/14 09:45:52;;;;;;;4.72;1.92;;;24.30;93.30;;;;;;5032869;28;20056;-72
2023/06/14 09:48:19;;;;;;;4.50;1.73;;;24.40;93.20;;;;;;5050154;28;20493;-72
2023/06/14 09:50:50;;;;;;;4.53;1.70;;;24.40;93.20;;;;;;5050844;28;20080;-71
2023/06/14 09:53:16;;;;;;;2.33;1.77;;;24.20;92.90;;;;;;5049819;28;20045;-72
2023/06/14 09:55:42;;;;;;;5.28;1.60;;;24.20;92.80;;;;;;5049883;28;20044;-71
2023/06/14 09:58:09;;;;;;;4.00;1.60;;;24.40;93.20;;;;;;5050802;28;20660;-70
2023/06/14 10:00:36;;;;;;;5.65;1.90;;;24.70;93.00;;;;;;5051241;28;20040;-71
2023/06/14 10:03:13;;;;;;;4.97;1.90;;;24.80;93.20;;;;;;5051023;28;20044;-70
2023/06/14 10:05:43;;;;;;;3.30;1.90;;;24.80;93.20;;;;;;5050546;28;20140;-72
2023/06/14 10:08:10;;;;;;;6.90;1.73;;;25.80;93.00;;;;;;5050702;28;20115;-71
2023/06/14 10:10:38;;;;;;;3.20;1.85;;;24.60;92.60;;;;;;5052261;28;20095;-71
2023/06/14 10:13:04;;;;;;;5.85;2.00;;;24.70;92.60;;;;;;5052209;28;20041;-71
2023/06/14 10:15:41;;;;;;;3.63;1.73;;;24.80;92.30;;;;;;5050639;28;20037;-71
2023/06/14 10:18:25;;;;;;;3.75;2.03;;;25.00;92.90;;;;;;5034976;28;20099;-72
2023/06/14 10:21:11;;;;;;;5.13;2.13;;;24.80;92.00;;;;;;5038859;28;20049;-71
2023/06/14 10:23:41;;;;;;;4.70;2.10;;;24.80;92.50;;;;;;5031930;28;20697;-69
2023/06/14 10:26:07;;;;;;;8.35;2.38;;;24.90;92.60;;;;;;5018982;28;20036;-72
2023/06/14 10:28:36;;;;;;;4.85;2.03;;;24.80;92.50;;;;;;5050263;28;20037;-70
2023/06/14 10:31:10;;;;;;;7.80;2.53;;;25.10;92.60;;;;;;5039360;28;20325;-70
2023/06/14 10:33:48;;;;;;;4.32;2.00;;;24.80;92.50;;;;;;5025892;28;20041;-72
2023/06/14 10:36:22;;;;;;;2.65;1.80;;;24.80;92.40;;;;;;5025579;28;20037;-71
2023/06/14 10:38:59;;;;;;;7.32;3.00;;;24.90;91.70;;;;;;5030728;28;20041;-72
2023/06/14 10:41:28;;;;;;;4.95;1.88;;;25.20;92.20;;;;;;5020252;28;20758;-73
2023/06/14 10:44:12;;;;;;;7.90;1.80;;;24.90;93.50;;;;;;5059865;28;20087;-73
2023/06/14 10:46:48;;;;;;;7.30;1.70;;;25.00;92.40;;;;;;5058630;28;20584;-73
2023/06/14 10:49:40;;;;;;;5.00;1.70;;;25.10;92.60;;;;;;5059035;28;20116;-72
2023/06/14 10:52:16;;;;;;;4.68;2.10;;;25.20;92.70;;;;;;5006147;28;20401;-72
2023/06/14 10:55:12;;;;;;;4.97;2.30;;;25.30;92.30;;;;;;5057652;28;20045;-72
2023/06/14 10:57:39;;;;;;;8.30;1.75;;;25.30;92.10;;;;;;5042060;28;20428;-72
2023/06/14 11:00:13;;;;;;;3.55;1.70;;;25.20;92.60;;;;;;5024424;28;20034;-72
2023/06/14 11:02:59;;;;;;;5.80;2.38;;;25.40;92.50;;;;;;5024255;28;20055;-72
2023/06/14 11:05:27;;;;;;;5.18;2.00;;;25.40;91.80;;;;;;5050462;28;20037;-72
2023/06/14 11:08:17;;;;;;;2.90;1.77;;;25.40;92.20;;;;;;5054174;28;20110;-72
2023/06/14 11:10:45;;;;;;;8.43;1.83;;;25.60;91.90;;;;;;5070899;28;20090;-73
2023/06/14 11:13:11;;;;;;;5.43;2.05;;;25.10;92.10;;;;;;5070534;28;20049;-72
2023/06/14 11:15:37;;;;;;;3.80;1.80;;;25.20;92.50;;;;;;5086903;28;20040;-72
2023/06/14 11:18:05;;;;;;;3.05;1.85;;;25.10;92.00;;;;;;5070368;28;20048;-73
2023/06/14 11:20:33;;;;;;;13.07;1.90;;;25.40;92.40;;;;;;5053711;28;20029;-72
2023/06/14 11:22:59;;;;;;;4.03;1.90;;;25.50;92.20;;;;;;5053765;28;20443;-72
2023/06/14 11:25:27;;;;;;;5.07;1.95;;;25.70;92.30;;;;;;5053517;28;20428;-71
2023/06/14 11:27:53;;;;;;;4.30;2.05;;;25.50;92.40;;;;;;5053521;28;20087;-71
2023/06/14 11:30:19;;;;;;;4.45;2.00;;;26.90;92.30;;;;;;5053685;28;20124;-71
2023/06/14 11:32:50;;;;;;;6.45;2.05;;;25.40;92.00;;;;;;5036796;28;20122;-72
2023/06/14 11:35:16;;;;;;;4.93;2.20;;;26.30;92.10;;;;;;5033387;28;20132;-71
2023/06/14 11:37:44;;;;;;;4.43;2.00;;;25.70;91.60;;;;;;5050133;28;20041;-72
2023/06/14 11:40:11;;;;;;;3.78;1.55;;;26.80;92.40;;;;;;5016796;28;20040;-72
2023/06/14 11:42:38;;;;;;;6.35;1.98;;;25.70;91.80;;;;;;5033591;28;20041;-72
2023/06/14 11:45:07;;;;;;;5.85;1.95;;;25.60;91.40;;;;;;5033632;28;20125;-72
2023/06/14 11:47:34;;;;;;;7.25;2.30;;;25.90;91.80;;;;;;5033170;28;20045;-72
2023/06/14 11:50:00;;;;;;;3.65;1.90;;;25.80;91.80;;;;;;5035809;28;20087;-72
2023/06/14 11:52:26;;;;;;;3.72;1.88;;;26.40;92.00;;;;;;5016139;28;20045;-72
2023/06/14 11:54:53;;;;;;;3.45;1.77;;;25.80;91.70;;;;;;5032963;28;20043;-72
2023/06/14 11:57:19;;;;;;;4.95;2.22;;;25.80;91.70;;;;;;5032050;28;20033;-71
2023/06/14 11:59:46;;;;;;;8.43;2.67;;;25.70;91.80;;;;;;5032596;28;20030;-72
2023/06/14 12:02:16;;;;;;;2.17;1.75;;;25.70;91.80;;;;;;5032486;28;20095;-71
2023/06/14 12:04:42;;;;;;;3.45;1.80;;;25.20;91.90;;;;;;5032020;28;20112;-71
2023/06/14 12:07:17;;;;;;;6.55;1.80;;;25.60;92.80;;;;;;5031997;28;20041;-71
2023/06/14 12:09:54;;;;;;;2.78;1.77;;;25.50;92.40;;;;;;5007142;28;20476;-71
2023/06/14 12:12:27;;;;;;;5.00;1.80;;;26.10;92.30;;;;;;5059205;28;20705;-71
2023/06/14 12:14:55;;;;;;;5.38;1.60;;;26.20;92.40;;;;;;5021420;28;20053;-71
2023/06/14 12:17:21;;;;;;;2.55;1.60;;;26.10;92.00;;;;;;5019155;28;20457;-71
2023/06/14 12:19:49;;;;;;;12.45;2.05;;;26.10;91.60;;;;;;5022621;28;20046;-70
2023/06/14 12:22:16;;;;;;;2.75;1.42;;;26.10;91.40;;;;;;5020669;28;20037;-71
2023/06/14 12:24:45;;;;;;;4.70;2.20;;;25.70;92.10;;;;;;5021043;28;20108;-71
2023/06/14 12:27:15;;;;;;;3.38;2.30;;;25.70;92.00;;;;;;5053652;28;20037;-71
2023/06/14 12:29:43;;;;;;;3.90;1.50;;;26.10;91.90;;;;;;5056974;28;20056;-70
2023/06/14 12:32:09;;;;;;;1.83;1.60;;;26.70;92.10;;;;;;5016621;28;20532;-71
2023/06/14 12:34:35;;;;;;;5.50;1.38;;;26.40;91.50;;;;;;5022125;28;20125;-70
2023/06/14 12:37:01;;;;;;;10.15;1.88;;;26.70;91.10;;;;;;5010188;28;20038;-70
2023/06/14 12:39:27;;;;;;;4.78;1.40;;;26.40;90.80;;;;;;5045114;28;20048;-70
2023/06/14 12:41:54;;;;;;;3.28;1.42;;;27.00;91.10;;;;;;5029989;28;20046;-71
2023/06/14 12:44:19;;;;;;;7.05;1.30;;;26.30;91.10;;;;;;5031585;28;20045;-71
2023/06/14 12:46:45;;;;;;;5.22;1.30;;;26.60;90.80;;;;;;5032739;28;20052;-71
2023/06/14 12:49:11;;;;;;;2.97;1.38;;;26.60;90.60;;;;;;5032945;28;20489;-71
2023/06/14 12:51:38;;;;;;;2.13;1.30;;;26.80;90.80;;;;;;5032244;28;20506;-71
2023/06/14 12:54:04;;;;;;;4.68;1.52;;;26.80;90.60;;;;;;5065577;28;20172;-71
2023/06/14 12:56:29;;;;;;;2.75;1.42;;;27.00;90.70;;;;;;5064817;28;20515;-72
2023/06/14 12:58:55;;;;;;;2.83;1.50;;;27.20;90.80;;;;;;5044767;28;20041;-71
2023/06/14 13:01:21;;;;;;;4.30;1.70;;;26.50;90.30;;;;;;5067417;28;20035;-70